Time;durP1;ratioP1;P1;durP2;ratioP2;P2;SDS_P1;SDS_P2;PMS_P1;PMS_P2;Temp;Humidity;BMP_temperature;BMP_pressure;BME280_temperature;BME280_humidity;BME280_pressure;Samples;Min_cycle;Max_cycle;Signal;HPM_P1;HPM_P2
2021/03/04 00:03:01;;;;;;;20.50;8.32;;;;;;;3.92;74.16;95707.06;10281460;28;20493;-76
2021/03/04 00:08:03;;;;;;;19.40;8.27;;;;;;;3.78;75.17;95701.97;10281577;28;20705;-76
2021/03/04 00:13:04;;;;;;;16.10;8.70;;;;;;;3.66;75.95;95696.47;10282102;28;20035;-76
2021/03/04 00:18:05;;;;;;;15.80;7.53;;;;;;;3.68;75.63;95691.75;10282148;28;20034;-76
2021/03/04 00:23:05;;;;;;;16.35;7.35;;;;;;;3.69;76.20;95688.06;10281629;28;20113;-76
2021/03/04 00:28:05;;;;;;;12.50;7.35;;;;;;;3.60;76.45;95687.47;10281661;28;20044;-76
2021/03/04 00:33:06;;;;;;;15.90;6.82;;;;;;;3.62;75.91;95681.97;10281684;28;20027;-75
2021/03/04 00:38:06;;;;;;;14.07;7.07;;;;;;;3.65;75.73;95677.03;10279833;28;20046;-75
2021/03/04 00:43:07;;;;;;;17.92;8.18;;;;;;;3.56;76.04;95673.78;10279858;28;20035;-76
2021/03/04 00:48:09;;;;;;;18.53;8.30;;;;;;;3.43;77.86;95671.09;10280336;28;20027;-76
2021/03/04 00:53:09;;;;;;;14.60;7.68;;;;;;;3.36;78.35;95660.50;10280233;28;20281;-76
2021/03/04 00:58:09;;;;;;;18.63;8.10;;;;;;;2.91;82.52;95663.72;10281255;28;20034;-77
2021/03/04 01:03:10;;;;;;;18.35;8.32;;;;;;;2.95;83.62;95653.53;10281575;28;20384;-76
2021/03/04 01:08:11;;;;;;;22.40;9.07;;;;;;;2.87;86.48;95643.91;10280717;28;20031;-76
2021/03/04 01:13:11;;;;;;;18.17;9.23;;;;;;;2.81;86.80;95642.06;10281994;28;20332;-76
2021/03/04 01:18:12;;;;;;;28.67;10.37;;;;;;;2.60;91.06;95636.94;10288224;28;20294;-76
2021/03/04 01:23:12;;;;;;;27.35;12.15;;;;;;;2.65;92.21;95629.16;10287947;28;20290;-76
2021/03/04 01:28:13;;;;;;;36.17;13.02;;;;;;;2.46;94.66;95620.97;10286291;28;20027;-76
2021/03/04 01:33:14;;;;;;;24.38;13.10;;;;;;;2.29;97.59;95617.84;10287745;28;20038;-76
2021/03/04 01:38:14;;;;;;;27.88;13.02;;;;;;;2.28;99.37;95604.81;10287566;28;20085;-76
2021/03/04 01:43:15;;;;;;;26.77;11.13;;;;;;;2.19;99.81;95606.78;10286918;28;20464;-76
2021/03/04 01:48:15;;;;;;;28.40;12.63;;;;;;;2.14;100.00;95591.47;10287337;28;20081;-76
2021/03/04 01:53:16;;;;;;;29.70;13.48;;;;;;;2.15;100.00;95590.47;10286823;28;20039;-76
2021/03/04 01:58:16;;;;;;;30.45;14.07;;;;;;;2.17;100.00;95583.13;10286404;28;20085;-76
2021/03/04 02:03:21;;;;;;;39.77;16.23;;;;;;;2.03;100.00;95581.44;10286411;28;20026;-76
2021/03/04 02:08:29;;;;;;;36.22;14.10;;;;;;;2.06;100.00;95581.06;10286284;28;20282;-76
2021/03/04 02:13:34;;;;;;;41.13;17.87;;;;;;;2.14;100.00;95580.88;10286417;28;20110;-77
2021/03/04 02:18:39;;;;;;;42.25;16.17;;;;;;;2.17;100.00;95574.34;10285662;28;20653;-76
2021/03/04 02:24:01;;;;;;;36.03;16.85;;;;;;;1.97;100.00;95576.97;10285979;28;20025;-76
2021/03/04 02:29:02;;;;;;;36.30;18.58;;;;;;;1.98;100.00;95575.91;10285167;28;20039;-76
2021/03/04 02:34:05;;;;;;;41.63;17.38;;;;;;;1.90;100.00;95570.78;10285490;28;20023;-77
2021/03/04 02:39:08;;;;;;;35.72;18.27;;;;;;;1.92;100.00;95574.88;10285206;28;20039;-76
2021/03/04 02:44:10;;;;;;;33.85;14.07;;;;;;;1.82;100.00;95575.25;10282376;28;20043;-76
2021/03/04 02:49:11;;;;;;;32.47;14.90;;;;;;;1.77;100.00;95571.56;10283243;28;20474;-76
2021/03/04 02:54:12;;;;;;;19.00;10.00;;;;;;;1.75;100.00;95582.34;10283674;28;20149;-76
2021/03/04 02:59:13;;;;;;;24.63;10.52;;;;;;;1.88;100.00;95579.78;10283714;28;20038;-77
2021/03/04 03:04:17;;;;;;;16.70;8.82;;;;;;;1.79;100.00;95578.28;10284270;28;20058;-76
2021/03/04 03:09:18;;;;;;;26.10;11.25;;;;;;;1.67;100.00;95580.66;10284074;28;20037;-76
2021/03/04 03:14:18;;;;;;;24.88;13.95;;;;;;;1.68;100.00;95576.22;10283975;28;20045;-76
2021/03/04 03:19:19;;;;;;;20.70;9.68;;;;;;;1.58;100.00;95578.38;10283546;28;20038;-77
2021/03/04 03:24:20;;;;;;;15.80;9.80;;;;;;;1.43;100.00;95581.16;10298413;28;20481;-76
2021/03/04 03:29:21;;;;;;;18.05;10.13;;;;;;;1.39;100.00;95575.44;10283343;28;20270;-76
2021/03/04 03:34:21;;;;;;;26.77;12.98;;;;;;;1.22;100.00;95571.47;10283461;28;20078;-76
2021/03/04 03:39:24;;;;;;;28.15;13.90;;;;;;;1.25;100.00;95565.78;10283006;28;20125;-73
2021/03/04 03:44:25;;;;;;;21.85;10.85;;;;;;;1.21;100.00;95567.97;10283358;28;20121;-77
2021/03/04 03:49:26;;;;;;;26.50;12.95;;;;;;;1.15;100.00;95561.63;10283199;28;20058;-76
2021/03/04 03:54:28;;;;;;;25.73;11.57;;;;;;;1.08;100.00;95559.97;10281557;28;20033;-78
2021/03/04 03:59:29;;;;;;;22.58;10.93;;;;;;;1.04;100.00;95564.81;10297577;28;20026;-78
2021/03/04 04:04:30;;;;;;;24.00;10.65;;;;;;;1.04;100.00;95554.22;10282244;28;20031;-77
2021/03/04 04:09:33;;;;;;;27.25;13.20;;;;;;;0.92;100.00;95551.31;10280527;28;20735;-76
2021/03/04 04:14:34;;;;;;;23.27;12.25;;;;;;;0.96;100.00;95552.56;10299314;28;20027;-76
2021/03/04 04:19:35;;;;;;;22.85;11.90;;;;;;;0.86;100.00;95552.06;10298959;28;20139;-77
2021/03/04 04:24:36;;;;;;;23.17;11.93;;;;;;;0.94;100.00;95548.47;10300046;28;20727;-77
2021/03/04 04:29:37;;;;;;;24.60;11.85;;;;;;;0.75;100.00;95545.44;10301135;28;20428;-79
2021/03/04 04:34:37;;;;;;;20.02;10.05;;;;;;;0.83;100.00;95541.88;10300974;28;20026;-77
2021/03/04 04:39:38;;;;;;;17.05;8.95;;;;;;;0.90;100.00;95542.72;10300028;28;20050;-78
2021/03/04 04:44:38;;;;;;;26.27;10.20;;;;;;;0.89;100.00;95532.34;10300399;28;20023;-77
2021/03/04 04:49:39;;;;;;;26.52;11.05;;;;;;;0.75;100.00;95526.94;10292020;28;20270;-77
2021/03/04 04:54:39;;;;;;;31.90;12.82;;;;;;;0.64;100.00;95522.16;10290278;28;20113;-77
2021/03/04 04:59:39;;;;;;;23.87;12.97;;;;;;;0.67;100.00;95519.13;10289722;28;20490;-76
2021/03/04 05:04:40;;;;;;;24.92;11.90;;;;;;;0.73;100.00;95517.56;10305062;28;20696;-77
2021/03/04 05:09:40;;;;;;;25.90;12.03;;;;;;;0.76;100.00;95507.41;10289414;28;20058;-77
2021/03/04 05:14:41;;;;;;;20.98;9.35;;;;;;;0.69;100.00;95506.56;10288539;28;20273;-77
2021/03/04 05:19:41;;;;;;;22.95;9.77;;;;;;;0.61;100.00;95509.34;10288911;28;20034;-77
2021/03/04 05:24:42;;;;;;;24.77;11.13;;;;;;;0.83;100.00;95499.53;10309674;28;20113;-77
2021/03/04 05:29:42;;;;;;;17.38;9.15;;;;;;;1.00;100.00;95500.03;10288829;28;20286;-76
2021/03/04 05:34:43;;;;;;;18.63;9.63;;;;;;;1.03;100.00;95491.72;10287758;28;20035;-74
2021/03/04 05:39:44;;;;;;;16.95;8.80;;;;;;;1.13;100.00;95489.53;10314520;28;20336;-74
2021/03/04 05:44:44;;;;;;;14.57;8.40;;;;;;;1.49;100.00;95488.50;10324920;28;20096;-74
2021/03/04 05:49:49;;;;;;;23.15;9.00;;;;;;;1.75;100.00;95483.50;10320657;28;20314;-76
2021/03/04 05:54:51;;;;;;;14.98;8.07;;;;;;;1.87;100.00;95489.81;10333123;28;20027;-76
2021/03/04 05:59:53;;;;;;;15.85;8.20;;;;;;;2.36;100.00;95499.31;10322817;28;20038;-75
2021/03/04 06:04:53;;;;;;;20.38;9.80;;;;;;;2.60;100.00;95488.31;10326095;28;20454;-74
2021/03/04 06:09:54;;;;;;;26.00;9.30;;;;;;;2.71;100.00;95485.06;10324785;28;20093;-75
2021/03/04 06:14:55;;;;;;;24.85;9.27;;;;;;;3.38;96.74;95487.59;10324909;28;20289;-75
2021/03/04 06:19:57;;;;;;;16.50;8.43;;;;;;;4.18;88.60;95481.09;10325348;28;20052;-74
2021/03/04 06:25:04;;;;;;;22.63;10.38;;;;;;;4.57;86.61;95477.31;10324999;28;20097;-75
2021/03/04 06:30:06;;;;;;;16.20;9.75;;;;;;;5.59;79.85;95464.66;10309825;28;20041;-73
2021/03/04 06:35:12;;;;;;;22.30;11.73;;;;;;;6.15;72.01;95468.06;10291126;28;20038;-75
2021/03/04 06:40:19;;;;;;;30.15;13.63;;;;;;;7.28;63.50;95473.44;10322775;28;20077;-74
2021/03/04 06:45:36;;;;;;;29.98;13.70;;;;;;;8.41;56.49;95472.16;10323687;28;20066;-73
2021/03/04 06:50:45;;;;;;;23.88;13.25;;;;;;;9.54;50.00;95455.19;10323225;28;20030;-74
2021/03/04 06:55:48;;;;;;;21.25;11.57;;;;;;;10.73;46.69;95451.91;10322009;28;20030;-73
2021/03/04 07:01:16;;;;;;;24.02;12.18;;;;;;;10.84;45.63;95452.81;10322253;28;20034;-73
2021/03/04 07:06:20;;;;;;;27.25;12.65;;;;;;;11.23;44.12;95441.78;10322528;28;20448;-73
2021/03/04 07:11:23;;;;;;;34.28;13.55;;;;;;;12.44;42.69;95427.44;10323037;28;20030;-73
2021/03/04 07:16:49;;;;;;;29.17;13.05;;;;;;;13.83;39.16;95419.19;10322805;28;20101;-73
2021/03/04 07:21:52;;;;;;;26.60;12.57;;;;;;;13.77;38.75;95417.59;10321961;28;20125;-73
2021/03/04 07:26:53;;;;;;;23.45;12.80;;;;;;;13.06;40.15;95416.66;10322381;28;20421;-73
2021/03/04 07:31:53;;;;;;;31.00;13.88;;;;;;;13.53;40.35;95417.38;10322495;28;20166;-73
2021/03/04 07:36:54;;;;;;;33.30;14.02;;;;;;;13.50;40.15;95405.25;10322436;28;20042;-73
2021/03/04 07:41:54;;;;;;;31.60;13.52;;;;;;;14.28;38.23;95399.50;10320028;28;20493;-72
2021/03/04 07:46:57;;;;;;;33.25;12.50;;;;;;;14.89;37.29;95382.03;10322405;28;20080;-72
2021/03/04 07:52:13;;;;;;;33.35;13.35;;;;;;;15.34;37.50;95368.31;10321925;28;20498;-72
2021/03/04 07:57:15;;;;;;;30.75;14.00;;;;;;;14.57;37.71;95371.69;10322020;28;20093;-72
2021/03/04 08:02:42;;;;;;;31.38;13.82;;;;;;;15.36;37.47;95361.53;10320609;28;20041;-72
2021/03/04 08:07:47;;;;;;;31.90;15.07;;;;;;;15.19;37.55;95364.66;10321413;28;20026;-73
2021/03/04 08:13:00;;;;;;;30.80;14.85;;;;;;;15.83;35.74;95353.66;10321348;28;20113;-74
2021/03/04 08:18:02;;;;;;;25.42;13.00;;;;;;;15.65;35.57;95351.69;10319631;28;20033;-74
2021/03/04 08:23:04;;;;;;;29.30;14.32;;;;;;;13.44;38.68;95346.94;10320639;28;20034;-73
2021/03/04 08:28:05;;;;;;;32.72;15.63;;;;;;;13.17;40.02;95341.88;10319049;28;20033;-72
2021/03/04 08:33:07;;;;;;;38.47;16.88;;;;;;;13.98;40.19;95333.72;10280200;28;20039;-72
2021/03/04 08:38:10;;;;;;;41.45;16.98;;;;;;;14.82;38.06;95327.44;10279993;28;20503;-73
2021/03/04 08:43:14;;;;;;;26.40;14.45;;;;;;;18.24;32.62;95307.03;10280589;28;20416;-72
2021/03/04 08:48:14;;;;;;;28.55;14.10;;;;;;;19.11;30.91;95306.00;10280684;28;20133;-72
2021/03/04 08:53:18;;;;;;;27.63;13.35;;;;;;;21.10;27.91;95289.31;10279307;28;20559;-72
2021/03/04 08:58:19;;;;;;;28.75;13.13;;;;;;;22.12;26.57;95273.03;10279567;28;20037;-73
2021/03/04 09:03:22;;;;;;;41.28;14.00;;;;;;;21.31;28.04;95272.22;10278203;28;20437;-73
2021/03/04 09:08:22;;;;;;;29.10;13.27;;;;;;;21.47;26.68;95258.75;10279560;28;20344;-72
2021/03/04 09:13:24;;;;;;;28.70;14.57;;;;;;;18.88;30.55;95270.63;10279507;28;20035;-73
2021/03/04 09:18:25;;;;;;;33.47;15.48;;;;;;;17.31;31.87;95258.47;10278274;28;20035;-73
2021/03/04 09:23:27;;;;;;;35.33;17.13;;;;;;;15.47;36.42;95264.69;10285147;28;20394;-76
2021/03/04 09:28:28;;;;;;;43.83;18.75;;;;;;;15.45;36.55;95250.63;10319056;28;20092;-75
2021/03/04 09:33:28;;;;;;;36.97;17.35;;;;;;;15.72;36.38;95249.19;10319965;28;20027;-75
2021/03/04 09:38:31;;;;;;;28.02;15.13;;;;;;;16.32;34.79;95234.19;10291176;28;20495;-75
2021/03/04 09:43:39;;;;;;;34.83;17.02;;;;;;;17.05;34.42;95224.47;10286151;28;20057;-76
2021/03/04 09:48:39;;;;;;;;;;;;;;;18.43;31.15;95224.38;10286596;28;20034;-75
2021/03/04 09:53:45;;;;;;;26.60;14.50;;;;;;;17.96;31.93;95205.69;10296531;28;20400;-75
2021/03/04 09:58:45;;;;;;;32.38;13.00;;;;;;;18.15;30.89;95204.69;10286158;28;20403;-75
2021/03/04 10:03:46;;;;;;;28.25;12.48;;;;;;;19.03;29.54;95193.13;10297061;28;20037;-75
2021/03/04 10:08:52;;;;;;;35.60;12.17;;;;;;;20.81;28.61;95180.78;10290567;28;20033;-75
2021/03/04 10:13:53;;;;;;;31.83;14.32;;;;;;;23.88;25.04;95159.41;10290964;28;20282;-75
2021/03/04 10:18:53;;;;;;;25.33;12.63;;;;;;;26.88;22.65;95142.31;10285763;28;20537;-75
2021/03/04 10:23:54;;;;;;;19.43;10.90;;;;;;;29.27;20.33;95119.94;10284899;28;20365;-74
2021/03/04 10:28:54;;;;;;;30.70;11.60;;;;;;;30.14;19.05;95115.69;10284658;28;20711;-74
2021/03/04 10:33:54;;;;;;;22.93;11.30;;;;;;;30.10;19.06;95100.22;10284417;28;20030;-75
2021/03/04 10:38:55;;;;;;;25.77;11.57;;;;;;;28.21;19.82;95090.91;10284619;28;20117;-75
2021/03/04 10:43:55;;;;;;;18.27;11.03;;;;;;;29.12;19.96;95077.53;10284345;28;20038;-74
2021/03/04 10:48:55;;;;;;;19.47;9.93;;;;;;;30.05;18.67;95067.34;10298130;28;20030;-74
2021/03/04 10:53:56;;;;;;;20.87;10.23;;;;;;;29.74;18.54;95059.28;10282589;28;20301;-74
2021/03/04 10:58:56;;;;;;;20.10;9.32;;;;;;;30.03;18.14;95045.56;10283729;28;20027;-71
2021/03/04 11:03:57;;;;;;;21.77;9.80;;;;;;;30.20;18.04;95037.66;10297872;28;20030;-71
2021/03/04 11:08:57;;;;;;;22.30;8.63;;;;;;;30.34;18.65;95026.63;10282625;28;20038;-72
2021/03/04 11:13:58;;;;;;;25.63;9.93;;;;;;;29.94;18.47;95017.44;10322456;28;20030;-73
2021/03/04 11:18:58;;;;;;;21.30;9.25;;;;;;;30.43;18.90;95001.25;10320441;28;20031;-73
2021/03/04 11:23:58;;;;;;;22.70;10.63;;;;;;;29.12;19.78;94996.44;10280948;28;20038;-73
2021/03/04 11:28:59;;;;;;;20.50;10.47;;;;;;;29.75;18.63;94983.31;10282574;28;20270;-73
2021/03/04 11:34:00;;;;;;;21.50;10.53;;;;;;;30.60;18.23;94963.63;10280573;28;20035;-73
2021/03/04 11:39:01;;;;;;;22.90;9.68;;;;;;;30.79;17.73;94956.88;10281759;28;20074;-73
2021/03/04 11:44:02;;;;;;;21.95;9.40;;;;;;;28.28;19.18;94942.53;10282228;28;20035;-73
2021/03/04 11:49:03;;;;;;;24.63;10.52;;;;;;;24.63;21.77;94945.53;10281999;28;20023;-73
2021/03/04 11:54:05;;;;;;;25.30;11.25;;;;;;;21.80;24.90;94938.00;10281794;28;20035;-73
2021/03/04 11:59:06;;;;;;;24.23;11.48;;;;;;;20.65;26.03;94938.22;10280508;28;20026;-72
2021/03/04 12:04:06;;;;;;;35.40;13.85;;;;;;;19.82;27.51;94925.22;10281465;28;20905;-73
2021/03/04 12:09:06;;;;;;;23.70;11.85;;;;;;;18.94;28.58;94915.31;10281496;28;20031;-73
2021/03/04 12:14:07;;;;;;;32.00;12.27;;;;;;;18.67;29.27;94904.72;10281688;28;20173;-73
2021/03/04 12:19:07;;;;;;;30.60;12.67;;;;;;;17.91;29.85;94909.41;10280816;28;20290;-73
2021/03/04 12:24:08;;;;;;;29.87;11.43;;;;;;;17.58;30.40;94896.16;10281017;28;20268;-73
2021/03/04 12:29:08;;;;;;;34.75;12.60;;;;;;;17.32;30.38;94890.63;10281097;28;20022;-73
2021/03/04 12:34:09;;;;;;;31.40;13.10;;;;;;;17.39;30.51;94874.66;10296105;28;20390;-73
2021/03/04 12:39:14;;;;;;;31.17;12.23;;;;;;;17.38;30.98;94873.84;10295305;28;20330;-73
2021/03/04 12:44:15;;;;;;;40.05;13.25;;;;;;;17.41;30.68;94859.66;10281130;28;20039;-73
2021/03/04 12:49:15;;;;;;;32.55;12.23;;;;;;;17.43;30.39;94849.25;10280340;28;20038;-73
2021/03/04 12:54:15;;;;;;;35.90;14.10;;;;;;;17.49;30.40;94847.19;10280659;28;20382;-73
2021/03/04 12:59:16;;;;;;;27.03;14.73;;;;;;;17.36;30.84;94843.47;10280677;28;20289;-73
2021/03/04 13:04:16;;;;;;;27.53;14.90;;;;;;;17.22;30.44;94830.00;10280766;28;20030;-73
2021/03/04 13:09:17;;;;;;;35.13;14.52;;;;;;;17.04;30.42;94834.56;10281918;28;20023;-73
2021/03/04 13:14:17;;;;;;;31.10;14.50;;;;;;;17.04;30.78;94825.63;10288062;28;20085;-73
2021/03/04 13:19:17;;;;;;;29.80;14.33;;;;;;;17.01;30.77;94821.59;10287576;28;20364;-73
2021/03/04 13:24:18;;;;;;;34.73;14.67;;;;;;;17.10;30.49;94818.94;10286632;28;20781;-73
2021/03/04 13:29:18;;;;;;;32.28;13.90;;;;;;;17.11;30.51;94809.66;10287170;28;20048;-73
2021/03/04 13:34:19;;;;;;;34.90;13.93;;;;;;;17.16;29.90;94806.78;10287049;28;20063;-73
2021/03/04 13:39:19;;;;;;;29.80;12.67;;;;;;;17.19;30.87;94803.47;10286557;28;20047;-72
2021/03/04 13:44:20;;;;;;;39.57;14.00;;;;;;;17.11;29.94;94787.13;10285233;28;20282;-72
2021/03/04 13:49:20;;;;;;;21.73;12.57;;;;;;;17.11;29.47;94779.81;10285330;28;20263;-73
2021/03/04 13:54:20;;;;;;;25.73;11.90;;;;;;;17.10;28.93;94780.91;10284393;28;20035;-73
2021/03/04 13:59:21;;;;;;;26.70;12.00;;;;;;;17.06;29.55;94774.50;10285046;28;20557;-72
2021/03/04 14:04:21;;;;;;;26.50;11.63;;;;;;;17.10;30.05;94771.97;10285365;28;20026;-73
2021/03/04 14:09:23;;;;;;;38.30;11.77;;;;;;;16.99;29.67;94766.78;10285708;28;20274;-73
2021/03/04 14:14:23;;;;;;;24.52;11.82;;;;;;;16.87;29.51;94758.41;10285224;28;20105;-73
2021/03/04 14:19:24;;;;;;;24.87;11.53;;;;;;;16.83;29.69;94766.38;10285235;28;20039;-73
2021/03/04 14:24:24;;;;;;;21.67;11.43;;;;;;;16.81;29.60;94757.75;10283680;28;20041;-74
2021/03/04 14:29:24;;;;;;;29.90;10.73;;;;;;;16.77;29.08;94739.69;10288845;28;20019;-73
2021/03/04 14:34:25;;;;;;;25.67;10.90;;;;;;;16.67;29.18;94736.13;10322473;28;20109;-73
2021/03/04 14:39:25;;;;;;;21.60;10.07;;;;;;;16.68;30.15;94739.66;10284822;28;20109;-73
2021/03/04 14:44:25;;;;;;;20.52;10.65;;;;;;;16.64;30.00;94722.41;10282839;28;20050;-74
2021/03/04 14:49:26;;;;;;;24.93;11.57;;;;;;;16.53;29.90;94732.72;10283858;28;20504;-72
2021/03/04 14:54:26;;;;;;;29.77;9.83;;;;;;;16.51;29.89;94721.38;10282929;28;20280;-72
2021/03/04 14:59:27;;;;;;;21.17;9.70;;;;;;;16.37;29.92;94719.53;10283457;28;20061;-73
2021/03/04 15:04:27;;;;;;;24.85;10.30;;;;;;;16.41;29.66;94711.59;10283779;28;20561;-72
2021/03/04 15:09:32;;;;;;;28.57;11.10;;;;;;;16.31;30.00;94703.69;10322590;28;20102;-72
2021/03/04 15:14:33;;;;;;;23.20;10.07;;;;;;;16.29;30.38;94698.59;10321561;28;20277;-73
2021/03/04 15:19:33;;;;;;;39.65;10.05;;;;;;;16.30;30.56;94702.09;10319379;28;20027;-72
2021/03/04 15:24:33;;;;;;;28.55;10.43;;;;;;;16.27;30.58;94700.81;10320840;28;20034;-73
2021/03/04 15:29:34;;;;;;;20.77;9.40;;;;;;;16.19;30.02;94694.22;10320781;28;20081;-73
2021/03/04 15:34:34;;;;;;;24.27;9.60;;;;;;;15.94;30.27;94698.34;10320851;28;20030;-73
2021/03/04 15:39:35;;;;;;;21.00;9.05;;;;;;;15.88;30.24;94692.25;10297706;28;20298;-72
2021/03/04 15:44:35;;;;;;;21.90;9.35;;;;;;;15.79;30.19;94688.69;10280816;28;20034;-72
2021/03/04 15:49:36;;;;;;;26.42;10.35;;;;;;;15.68;30.50;94690.00;10281168;28;20376;-72
2021/03/04 15:54:36;;;;;;;35.83;10.80;;;;;;;15.62;30.85;94686.59;10281002;28;20034;-73
2021/03/04 15:59:37;;;;;;;28.05;10.68;;;;;;;15.57;31.22;94688.63;10303622;28;20069;-73
2021/03/04 16:04:37;;;;;;;41.10;12.97;;;;;;;15.43;31.83;94692.16;10320365;28;20092;-72
2021/03/04 16:09:37;;;;;;;30.65;11.88;;;;;;;15.34;31.89;94691.31;10320735;28;20026;-72
2021/03/04 16:14:38;;;;;;;25.80;12.00;;;;;;;15.03;32.71;94698.16;10320996;28;20152;-71
2021/03/04 16:19:38;;;;;;;34.97;12.95;;;;;;;14.85;33.41;94704.50;10319934;28;20038;-72
2021/03/04 16:24:39;;;;;;;31.02;11.70;;;;;;;14.77;33.45;94705.97;10320951;28;20026;-71
2021/03/04 16:29:39;;;;;;;36.57;13.67;;;;;;;14.59;34.08;94704.13;10318837;28;20026;-72
2021/03/04 16:34:40;;;;;;;36.90;12.85;;;;;;;14.45;34.16;94709.53;10318957;28;20351;-72
2021/03/04 16:39:40;;;;;;;44.83;13.90;;;;;;;14.30;35.36;94713.28;10319195;28;20070;-73
2021/03/04 16:44:41;;;;;;;38.90;14.30;;;;;;;14.10;36.03;94704.44;10322790;28;20030;-72
2021/03/04 16:49:41;;;;;;;46.95;14.65;;;;;;;13.85;36.95;94714.56;10315809;28;20765;-71
2021/03/04 16:54:41;;;;;;;57.83;14.85;;;;;;;13.59;38.41;94721.44;10288273;28;20042;-72
2021/03/04 16:59:42;;;;;;;55.00;14.80;;;;;;;13.33;36.08;94722.56;10288031;28;20022;-72
2021/03/04 17:04:42;;;;;;;40.73;14.30;;;;;;;13.12;38.17;94729.34;10287734;28;20474;-72
2021/03/04 17:09:43;;;;;;;43.63;13.10;;;;;;;12.94;37.49;94723.59;10287480;28;20414;-72
2021/03/04 17:14:43;;;;;;;30.48;11.70;;;;;;;12.80;36.20;94720.78;10286316;28;20487;-72
2021/03/04 17:19:43;;;;;;;39.60;13.77;;;;;;;12.74;37.98;94740.00;10287333;28;20106;-73
2021/03/04 17:24:44;;;;;;;32.37;9.03;;;;;;;12.49;35.25;94728.44;10302145;28;20474;-72
2021/03/04 17:29:44;;;;;;;42.07;9.23;;;;;;;12.44;34.57;94723.88;10286053;28;20285;-73
2021/03/04 17:34:45;;;;;;;18.50;6.87;;;;;;;12.50;33.13;94729.22;10287222;28;20031;-73
2021/03/04 17:39:45;;;;;;;19.33;6.80;;;;;;;12.61;32.56;94728.84;10308732;28;20117;-73
2021/03/04 17:44:45;;;;;;;17.17;8.43;;;;;;;12.59;33.37;94722.91;10308426;28;20277;-75
2021/03/04 17:49:46;;;;;;;19.20;8.10;;;;;;;12.56;34.07;94725.38;10313145;28;20282;-74
2021/03/04 17:54:47;;;;;;;25.25;9.32;;;;;;;12.52;35.54;94732.44;10291846;28;20512;-73
2021/03/04 17:59:47;;;;;;;25.07;9.77;;;;;;;12.37;35.19;94736.88;10326941;28;20041;-73
2021/03/04 18:04:48;;;;;;;25.97;10.37;;;;;;;12.33;35.92;94735.84;10327550;28;20265;-73
2021/03/04 18:09:48;;;;;;;24.38;10.45;;;;;;;12.29;35.50;94735.63;10327716;28;20364;-73
2021/03/04 18:14:48;;;;;;;31.13;10.85;;;;;;;12.09;35.91;94736.59;10326499;28;20041;-73
2021/03/04 18:19:49;;;;;;;28.17;9.57;;;;;;;11.96;34.92;94731.88;10327282;28;20172;-73
2021/03/04 18:24:50;;;;;;;24.90;8.73;;;;;;;11.86;35.80;94732.72;10326490;28;20394;-73
2021/03/04 18:29:51;;;;;;;32.08;10.57;;;;;;;11.70;35.58;94734.72;10325604;28;20030;-72
2021/03/04 18:34:51;;;;;;;30.50;11.40;;;;;;;11.61;36.25;94739.09;10321490;28;20134;-73
2021/03/04 18:39:51;;;;;;;42.63;12.17;;;;;;;11.46;37.44;94742.69;10285466;28;20046;-72
2021/03/04 18:44:52;;;;;;;33.70;11.30;;;;;;;11.34;36.48;94739.50;10284930;28;20657;-72
2021/03/04 18:49:52;;;;;;;29.55;10.73;;;;;;;11.21;36.83;94740.94;10285920;28;20038;-72
2021/03/04 18:54:53;;;;;;;26.17;9.53;;;;;;;11.13;37.80;94742.28;10307934;28;20034;-72
2021/03/04 18:59:53;;;;;;;23.33;9.23;;;;;;;11.06;36.28;94737.22;10325224;28;20297;-73
2021/03/04 19:04:53;;;;;;;36.97;11.07;;;;;;;10.94;37.08;94734.84;10343303;28;20030;-74
2021/03/04 19:09:54;;;;;;;36.20;12.23;;;;;;;10.93;37.08;94737.81;10364255;28;20117;-75
2021/03/04 19:14:54;;;;;;;43.10;11.93;;;;;;;10.76;38.39;94736.25;10365369;28;20045;-75
2021/03/04 19:19:55;;;;;;;18.83;9.68;;;;;;;10.72;39.68;94737.88;10363667;28;20384;-74
2021/03/04 19:24:55;;;;;;;30.05;9.80;;;;;;;10.54;37.79;94736.59;10325192;28;20113;-73
2021/03/04 19:29:56;;;;;;;26.15;10.65;;;;;;;10.45;38.94;94734.72;10283072;28;20027;-73
2021/03/04 19:34:56;;;;;;;26.40;10.93;;;;;;;10.32;38.79;94730.69;10294481;28;20022;-73
2021/03/04 19:39:56;;;;;;;23.55;9.25;;;;;;;10.26;40.83;94744.13;10323949;28;20129;-73
2021/03/04 19:44:58;;;;;;;26.55;9.90;;;;;;;10.15;38.31;94739.84;10323673;28;20552;-72
2021/03/04 19:49:59;;;;;;;26.20;10.05;;;;;;;10.14;38.71;94740.13;10323162;28;20084;-73
2021/03/04 19:54:59;;;;;;;19.30;8.38;;;;;;;10.13;38.79;94735.81;10323826;28;20025;-73
2021/03/04 20:00:00;;;;;;;22.83;9.93;;;;;;;10.05;37.92;94729.91;10322908;28;20027;-73
2021/03/04 20:05:00;;;;;;;33.20;8.82;;;;;;;9.89;38.31;94726.44;10322918;28;20277;-73
2021/03/04 20:10:01;;;;;;;36.28;9.45;;;;;;;9.88;39.75;94732.88;10323522;28;20027;-72
2021/03/04 20:15:06;;;;;;;26.50;10.40;;;;;;;9.63;40.73;94728.31;10322779;28;20026;-72
2021/03/04 20:20:08;;;;;;;22.95;9.13;;;;;;;9.52;38.03;94724.00;10321741;28;20049;-73
2021/03/04 20:25:09;;;;;;;25.50;11.63;;;;;;;9.49;38.75;94729.88;10323109;28;20065;-73
2021/03/04 20:30:12;;;;;;;20.63;8.93;;;;;;;9.35;38.55;94730.41;10322770;28;20034;-73
2021/03/04 20:35:13;;;;;;;28.70;11.82;;;;;;;9.28;39.77;94731.72;10322007;28;20489;-73
2021/03/04 20:40:14;;;;;;;25.55;10.50;;;;;;;9.23;38.78;94729.84;10311218;28;20047;-73
2021/03/04 20:45:14;;;;;;;30.85;10.05;;;;;;;9.19;39.78;94720.72;10281852;28;20043;-73
2021/03/04 20:50:15;;;;;;;23.30;9.77;;;;;;;9.07;41.18;94729.00;10281921;28;20035;-73
2021/03/04 20:55:16;;;;;;;26.10;9.82;;;;;;;8.89;41.08;94731.09;10282419;28;20050;-73
2021/03/04 21:00:17;;;;;;;28.07;10.63;;;;;;;8.49;42.69;94739.75;10291409;28;20061;-73
2021/03/04 21:05:17;;;;;;;23.13;11.23;;;;;;;8.44;43.07;94731.63;10321186;28;20356;-73
2021/03/04 21:10:18;;;;;;;22.30;10.65;;;;;;;8.32;44.19;94731.84;10322275;28;20036;-73
2021/03/04 21:15:18;;;;;;;32.05;11.70;;;;;;;8.11;44.83;94729.03;10321582;28;20114;-73
2021/03/04 21:20:19;;;;;;;39.63;13.85;;;;;;;8.03;43.89;94724.97;10320645;28;20589;-73
2021/03/04 21:25:19;;;;;;;30.50;13.38;;;;;;;8.03;44.69;94732.19;10321938;28;20034;-72
2021/03/04 21:30:20;;;;;;;32.05;13.40;;;;;;;8.07;45.47;94737.84;10322951;28;20019;-74
2021/03/04 21:35:22;;;;;;;46.95;16.02;;;;;;;7.95;46.54;94728.09;10328011;28;20026;-74
2021/03/04 21:40:22;;;;;;;29.65;14.32;;;;;;;8.03;45.28;94726.84;10328232;28;20077;-75
2021/03/04 21:45:23;;;;;;;40.35;15.40;;;;;;;7.97;46.28;94722.53;10329717;28;20844;-75
2021/03/04 21:50:23;;;;;;;38.78;15.35;;;;;;;7.68;47.29;94720.94;10328680;28;20493;-76
2021/03/04 21:55:24;;;;;;;37.40;15.32;;;;;;;7.45;49.66;94722.09;10328609;28;20457;-75
2021/03/04 22:00:24;;;;;;;34.30;15.90;;;;;;;7.43;48.64;94720.75;10329130;28;20034;-75
2021/03/04 22:05:25;;;;;;;49.53;18.15;;;;;;;7.41;48.52;94720.16;10330846;28;20064;-75
2021/03/04 22:10:25;;;;;;;33.83;16.02;;;;;;;7.51;49.23;94712.25;10368144;28;20074;-75
2021/03/04 22:15:26;;;;;;;41.63;18.05;;;;;;;7.24;50.11;94718.44;10367228;28;20049;-75
2021/03/04 22:20:26;;;;;;;31.65;15.90;;;;;;;7.31;50.48;94710.19;10368084;28;20030;-75
2021/03/04 22:25:27;;;;;;;33.20;16.93;;;;;;;7.30;50.62;94705.94;10312845;28;20034;-75
2021/03/04 22:30:27;;;;;;;35.88;15.95;;;;;;;7.26;51.66;94715.50;10289619;28;20340;-75
2021/03/04 22:35:28;;;;;;;34.25;16.20;;;;;;;7.04;52.12;94708.31;10328584;28;20033;-75
2021/03/04 22:40:29;;;;;;;39.67;17.05;;;;;;;7.12;50.77;94704.41;10326211;28;20137;-75
2021/03/04 22:45:29;;;;;;;35.38;14.82;;;;;;;7.11;50.42;94700.13;10324991;28;20041;-75
2021/03/04 22:50:30;;;;;;;33.58;16.55;;;;;;;7.05;51.49;94712.63;10326451;28;20034;-75
2021/03/04 22:55:30;;;;;;;36.65;16.45;;;;;;;6.86;51.87;94709.47;10325784;28;20397;-75
2021/03/04 23:00:31;;;;;;;39.22;16.17;;;;;;;6.84;52.81;94712.38;10326558;28;20042;-75